createdAt,value
2023-02-14T00:00:49.591Z,4.02
2023-02-14T00:03:27.069Z,4.03
2023-02-14T00:05:53.922Z,4.07
2023-02-14T00:08:21.237Z,4.05
2023-02-14T00:10:48.112Z,4.08
2023-02-14T00:13:15.288Z,4.06
2023-02-14T00:15:42.206Z,4.08
2023-02-14T00:18:09.701Z,4.10
2023-02-14T00:20:37.082Z,4.12
2023-02-14T00:23:04.284Z,4.14
2023-02-14T00:25:31.155Z,4.16
2023-02-14T00:28:00.830Z,4.21
2023-02-14T00:30:28.546Z,4.22
2023-02-14T00:32:55.796Z,4.25
2023-02-14T00:35:22.680Z,4.28
2023-02-14T00:37:52.222Z,4.27
2023-02-14T00:40:19.736Z,4.25
2023-02-14T00:42:46.885Z,4.25
2023-02-14T00:45:15.002Z,4.22
2023-02-14T00:47:42.162Z,4.22
2023-02-14T00:50:09.166Z,4.20
2023-02-14T00:52:36.453Z,4.17
2023-02-14T00:55:03.316Z,4.16
2023-02-14T00:57:30.603Z,4.14
2023-02-14T00:59:57.547Z,4.12
2023-02-14T01:02:27.723Z,4.09
2023-02-14T01:04:54.563Z,4.06
2023-02-14T01:07:22.783Z,4.06
2023-02-14T01:09:49.724Z,4.08
2023-02-14T01:12:16.944Z,4.04
2023-02-14T01:14:43.836Z,4.02
2023-02-14T01:17:11.079Z,4.02
2023-02-14T01:19:38.419Z,4.04
2023-02-14T01:22:06.511Z,4.06
2023-02-14T01:24:33.443Z,4.04
2023-02-14T01:27:03.058Z,4.01
2023-02-14T01:29:29.926Z,4.02
2023-02-14T01:31:57.230Z,3.98
2023-02-14T01:34:25.227Z,4.00
2023-02-14T01:36:52.494Z,3.98
2023-02-14T01:39:19.447Z,3.98
2023-02-14T01:41:50.167Z,3.97
2023-02-14T01:44:17.018Z,3.95
2023-02-14T01:46:45.083Z,3.94
2023-02-14T01:49:12.140Z,3.94
2023-02-14T01:51:43.244Z,3.91
2023-02-14T01:54:13.335Z,3.89
2023-02-14T01:56:44.567Z,3.87
2023-02-14T01:59:18.767Z,3.83
2023-02-14T02:01:46.239Z,3.84
2023-02-14T02:04:16.775Z,3.81
2023-02-14T02:06:45.902Z,3.83
2023-02-14T02:09:24.423Z,3.80
2023-02-14T02:11:51.637Z,3.77
2023-02-14T02:14:24.425Z,3.78
2023-02-14T02:16:54.619Z,3.75
2023-02-14T02:19:21.564Z,3.77
2023-02-14T02:22:05.059Z,3.75
2023-02-14T02:24:32.249Z,3.74
2023-02-14T02:27:08.876Z,3.73
2023-02-14T02:29:54.645Z,3.73
2023-02-14T02:32:27.659Z,3.75
2023-02-14T02:35:09.918Z,3.74
2023-02-14T02:37:55.861Z,3.74
2023-02-14T02:40:32.185Z,3.73
2023-02-14T02:43:06.976Z,3.70
2023-02-14T02:45:33.847Z,3.68
2023-02-14T02:48:00.986Z,3.67
2023-02-14T02:50:57.755Z,3.67
2023-02-14T02:53:30.151Z,3.66
2023-02-14T02:56:28.114Z,3.70
2023-02-14T02:59:00.733Z,3.65
2023-02-14T03:01:34.384Z,3.69
2023-02-14T03:04:23.837Z,3.66
2023-02-14T03:06:51.440Z,3.64
2023-02-14T03:09:27.857Z,3.66
2023-02-14T03:12:03.710Z,3.70
2023-02-14T03:14:40.332Z,3.65
2023-02-14T03:17:14.770Z,3.69
2023-02-14T03:20:16.106Z,3.64
2023-02-14T03:22:56.438Z,3.63
2023-02-14T03:25:23.900Z,3.54
2023-02-14T03:27:54.869Z,3.52
2023-02-14T03:30:42.305Z,3.45
2023-02-14T03:33:20.832Z,3.38
2023-02-14T03:35:48.677Z,3.39
2023-02-14T03:38:18.722Z,3.36
2023-02-14T03:40:54.802Z,3.35
2023-02-14T03:43:42.044Z,3.35
2023-02-14T03:46:17.425Z,3.29
2023-02-14T03:48:48.196Z,3.25
2023-02-14T03:51:16.921Z,3.24
2023-02-14T03:53:47.895Z,3.23
2023-02-14T03:56:25.099Z,3.18
2023-02-14T03:58:54.032Z,3.18
2023-02-14T04:01:25.910Z,3.19
2023-02-14T04:03:54.168Z,3.14
2023-02-14T04:06:21.710Z,3.18
2023-02-14T04:08:48.706Z,3.16
2023-02-14T04:11:15.858Z,3.16
2023-02-14T04:13:42.814Z,3.13
2023-02-14T04:16:10.096Z,3.13
2023-02-14T04:19:02.971Z,3.13
2023-02-14T04:21:30.136Z,3.17
2023-02-14T04:23:56.967Z,3.16
2023-02-14T04:26:24.201Z,3.17
2023-02-14T04:28:51.048Z,3.20
2023-02-14T04:31:18.384Z,3.23
2023-02-14T04:33:46.178Z,3.24
2023-02-14T04:36:13.364Z,3.24
2023-02-14T04:38:40.465Z,3.26
2023-02-14T04:41:07.717Z,3.29
2023-02-14T04:43:34.849Z,3.28
2023-02-14T04:46:01.986Z,3.29
2023-02-14T04:48:31.292Z,3.26
2023-02-14T04:50:58.923Z,3.27
2023-02-14T04:53:26.935Z,3.23
2023-02-14T04:55:56.481Z,3.24
2023-02-14T04:58:23.538Z,3.20
2023-02-14T05:00:50.785Z,3.21
2023-02-14T05:03:20.587Z,3.20
2023-02-14T05:05:47.699Z,3.16
2023-02-14T05:08:14.989Z,3.12
2023-02-14T05:10:42.368Z,3.08
2023-02-14T05:13:09.247Z,3.11
2023-02-14T05:15:38.449Z,3.06
2023-02-14T05:18:05.818Z,3.07
2023-02-14T05:20:35.507Z,3.01
2023-02-14T05:23:03.622Z,2.97
2023-02-14T05:25:31.264Z,2.96
2023-02-14T05:27:59.081Z,2.94
2023-02-14T05:30:28.158Z,2.93
2023-02-14T05:32:55.178Z,2.95
2023-02-14T05:35:24.826Z,2.93
2023-02-14T05:37:51.714Z,2.92
2023-02-14T05:40:19.180Z,2.95
2023-02-14T05:42:46.057Z,2.93
2023-02-14T05:45:13.314Z,2.91
2023-02-14T05:47:40.323Z,2.92
2023-02-14T05:50:09.904Z,2.92
2023-02-14T05:52:37.041Z,2.94
2023-02-14T05:55:04.682Z,2.94
2023-02-14T05:57:34.413Z,2.94
2023-02-14T06:00:01.716Z,2.93
2023-02-14T06:02:31.337Z,2.94
2023-02-14T06:04:59.322Z,2.94
2023-02-14T06:07:26.210Z,2.98
2023-02-14T06:09:53.454Z,3.00
2023-02-14T06:12:20.414Z,3.01
2023-02-14T06:14:47.634Z,3.06
2023-02-14T06:17:17.517Z,3.07
2023-02-14T06:19:44.731Z,3.12
2023-02-14T06:22:11.587Z,3.15
2023-02-14T06:24:38.862Z,3.16
2023-02-14T06:27:05.775Z,3.19
2023-02-14T06:29:32.950Z,3.24
2023-02-14T06:32:05.860Z,3.26
2023-02-14T06:34:33.683Z,3.28
2023-02-14T06:37:00.917Z,3.32
2023-02-14T06:39:28.096Z,3.36
2023-02-14T06:41:55.044Z,3.37
2023-02-14T06:44:22.302Z,3.40
2023-02-14T06:46:51.388Z,3.43
2023-02-14T06:49:20.882Z,3.47
2023-02-14T06:51:50.685Z,3.51
2023-02-14T06:54:17.900Z,3.49
2023-02-14T06:56:44.862Z,3.59
2023-02-14T06:59:12.041Z,3.70
2023-02-14T07:01:39.026Z,3.73
2023-02-14T07:04:06.441Z,3.82
2023-02-14T07:06:33.566Z,3.87
2023-02-14T07:09:00.832Z,3.88
2023-02-14T07:11:28.681Z,3.91
2023-02-14T07:13:58.203Z,3.97
2023-02-14T07:16:25.772Z,3.97
2023-02-14T07:18:52.991Z,4.00
2023-02-14T07:21:24.584Z,4.02
2023-02-14T07:23:51.790Z,4.07
2023-02-14T07:26:18.850Z,4.07
2023-02-14T07:28:46.737Z,4.12
2023-02-14T07:31:13.944Z,4.13
2023-02-14T07:33:41.692Z,4.18
2023-02-14T07:36:09.061Z,4.17
2023-02-14T07:38:36.325Z,4.26
2023-02-14T07:41:03.758Z,4.29
2023-02-14T07:43:30.987Z,4.33
2023-02-14T07:45:59.516Z,4.36
2023-02-14T07:48:28.866Z,4.40
2023-02-14T07:50:58.324Z,4.41
2023-02-14T07:53:26.047Z,4.39
2023-02-14T07:55:53.007Z,4.41
2023-02-14T07:58:22.690Z,4.45
2023-02-14T08:00:49.624Z,4.44
2023-02-14T08:03:17.329Z,4.42
2023-02-14T08:05:44.284Z,4.43
2023-02-14T08:08:11.516Z,4.44
2023-02-14T08:10:40.677Z,4.49
2023-02-14T08:13:07.816Z,4.52
2023-02-14T08:15:53.867Z,4.51
2023-02-14T08:18:23.178Z,4.48
2023-02-14T08:20:50.317Z,4.53
2023-02-14T08:23:18.748Z,4.72
2023-02-14T08:25:45.782Z,4.75
2023-02-14T08:28:16.277Z,4.79
2023-02-14T08:30:44.205Z,4.79
2023-02-14T08:33:12.217Z,4.74
2023-02-14T08:35:39.116Z,4.76
2023-02-14T08:38:06.425Z,4.74
2023-02-14T08:40:37.185Z,4.81
2023-02-14T08:43:05.719Z,4.74
2023-02-14T08:45:32.903Z,4.76
2023-02-14T08:48:01.132Z,4.80
2023-02-14T08:50:28.766Z,4.80
2023-02-14T08:52:56.097Z,4.85
2023-02-14T08:55:22.940Z,4.84
2023-02-14T08:57:50.176Z,4.86
2023-02-14T09:00:17.225Z,4.82
2023-02-14T09:02:44.510Z,4.83
2023-02-14T09:05:11.489Z,4.83
2023-02-14T09:07:38.766Z,4.87
2023-02-14T09:10:06.217Z,4.88
2023-02-14T09:12:33.430Z,4.95
2023-02-14T09:15:00.508Z,4.99
2023-02-14T09:17:27.810Z,5.01
2023-02-14T09:19:54.819Z,5.03
2023-02-14T09:22:22.110Z,5.05
2023-02-14T09:24:49.000Z,5.09
2023-02-14T09:27:16.141Z,5.07
2023-02-14T09:29:43.147Z,5.10
2023-02-14T09:32:15.224Z,5.20
2023-02-14T09:35:00.801Z,5.25
2023-02-14T09:37:28.050Z,5.29
2023-02-14T09:39:54.928Z,5.27
2023-02-14T09:42:22.153Z,5.36
2023-02-14T09:44:55.229Z,5.45
2023-02-14T09:47:31.453Z,5.52
2023-02-14T09:49:58.605Z,5.54
2023-02-14T09:52:31.923Z,5.58
2023-02-14T09:55:01.674Z,5.60
2023-02-14T09:57:58.324Z,5.59
2023-02-14T10:00:35.126Z,5.63
2023-02-14T10:03:21.350Z,5.62
2023-02-14T10:05:59.160Z,5.58
2023-02-14T10:08:45.302Z,5.58
2023-02-14T10:11:15.688Z,5.65
2023-02-14T10:13:46.167Z,5.68
2023-02-14T10:16:16.132Z,5.73
2023-02-14T10:18:49.652Z,5.73
2023-02-14T10:21:23.348Z,5.74
2023-02-14T10:23:54.122Z,5.84
2023-02-14T10:26:25.139Z,5.88
2023-02-14T10:28:55.319Z,5.94
2023-02-14T10:31:31.724Z,5.99
2023-02-14T10:34:06.547Z,6.06
2023-02-14T10:36:53.767Z,6.06
2023-02-14T10:39:30.108Z,6.09
2023-02-14T10:42:02.836Z,6.06
2023-02-14T10:44:41.747Z,6.03
2023-02-14T10:47:23.629Z,6.03
2023-02-14T10:50:17.243Z,6.03
2023-02-14T10:52:47.127Z,6.08
2023-02-14T10:55:39.754Z,6.03
2023-02-14T10:58:10.119Z,6.13
2023-02-14T11:00:45.158Z,6.15
2023-02-14T11:03:14.706Z,6.09
2023-02-14T11:05:47.066Z,6.12
2023-02-14T11:08:15.425Z,6.16
2023-02-14T11:10:42.684Z,6.18
2023-02-14T11:13:29.867Z,6.18
2023-02-14T11:16:02.182Z,6.07
2023-02-14T11:18:33.077Z,6.01
2023-02-14T11:21:00.879Z,6.09
2023-02-14T11:23:31.724Z,6.11
2023-02-14T11:26:00.794Z,6.09
2023-02-14T11:28:28.104Z,6.07
2023-02-14T11:30:55.914Z,6.09
2023-02-14T11:33:29.770Z,6.03
2023-02-14T11:35:57.373Z,6.07
2023-02-14T11:38:30.778Z,6.04
2023-02-14T11:40:59.011Z,6.04
2023-02-14T11:43:37.416Z,6.00
2023-02-14T11:46:24.950Z,5.97
2023-02-14T11:48:56.540Z,5.95
2023-02-14T11:51:31.892Z,5.92
2023-02-14T11:54:09.378Z,5.96
2023-02-14T11:56:45.695Z,5.98
2023-02-14T11:59:13.834Z,5.95
2023-02-14T12:01:46.157Z,6.00
2023-02-14T12:04:27.828Z,6.00
2023-02-14T12:07:05.587Z,6.04
2023-02-14T12:09:32.494Z,5.97
2023-02-14T12:12:00.888Z,6.02
2023-02-14T12:14:29.632Z,6.03
2023-02-14T12:16:57.040Z,6.05
2023-02-14T12:19:49.153Z,6.11
2023-02-14T12:22:19.172Z,6.09
2023-02-14T12:24:54.261Z,5.97
2023-02-14T12:27:25.923Z,6.08
2023-02-14T12:29:55.158Z,6.17
2023-02-14T12:32:30.100Z,6.10
2023-02-14T12:35:03.157Z,6.13
2023-02-14T12:38:04.301Z,6.09
2023-02-14T12:40:47.134Z,6.19
2023-02-14T12:43:17.408Z,6.24
2023-02-14T12:45:56.550Z,6.21
2023-02-14T12:48:29.780Z,6.25
2023-02-14T12:50:56.731Z,6.23
2023-02-14T12:53:49.167Z,6.21
2023-02-14T12:56:19.342Z,6.11
2023-02-14T12:58:53.152Z,6.09
2023-02-14T13:01:39.405Z,6.13
2023-02-14T13:04:20.728Z,6.15
2023-02-14T13:06:55.869Z,6.16
2023-02-14T13:09:36.833Z,6.18
2023-02-14T13:12:06.819Z,6.23
2023-02-14T13:14:37.026Z,6.28
2023-02-14T13:17:11.246Z,6.29
2023-02-14T13:19:52.275Z,6.17
2023-02-14T13:22:24.145Z,6.19
2023-02-14T13:24:53.601Z,6.21
2023-02-14T13:27:22.946Z,6.27
2023-02-14T13:30:08.611Z,6.23
2023-02-14T13:32:39.116Z,6.31
2023-02-14T13:35:07.893Z,6.11
2023-02-14T13:37:35.661Z,6.17
2023-02-14T13:40:04.738Z,6.16
2023-02-14T13:42:46.915Z,6.22
2023-02-14T13:45:35.380Z,6.20
2023-02-14T13:48:06.722Z,6.20
2023-02-14T13:50:36.185Z,6.21
2023-02-14T13:53:03.175Z,6.16
2023-02-14T13:55:38.001Z,6.16
2023-02-14T13:58:18.516Z,6.10
2023-02-14T14:00:49.190Z,6.10
2023-02-14T14:03:31.453Z,6.10
2023-02-14T14:06:02.264Z,6.09
2023-02-14T14:08:31.446Z,6.10
2023-02-14T14:11:03.176Z,6.07
2023-02-14T14:13:42.480Z,6.06
2023-02-14T14:16:28.298Z,6.05
2023-02-14T14:18:56.906Z,5.96
2023-02-14T14:21:24.210Z,6.00
2023-02-14T14:24:09.889Z,6.03
2023-02-14T14:26:39.711Z,6.05
2023-02-14T14:29:18.023Z,6.05
2023-02-14T14:31:46.713Z,6.05
2023-02-14T14:34:19.596Z,6.04
2023-02-14T14:36:47.054Z,5.94
2023-02-14T14:39:25.437Z,5.93
2023-02-14T14:41:52.884Z,5.90
2023-02-14T14:44:20.042Z,5.84
2023-02-14T14:46:47.284Z,5.90
2023-02-14T14:49:16.497Z,5.90
2023-02-14T14:51:43.806Z,5.92
2023-02-14T14:54:16.452Z,5.95
2023-02-14T14:56:47.084Z,5.88
2023-02-14T14:59:28.076Z,5.89
2023-02-14T15:01:55.664Z,5.84
2023-02-14T15:04:27.362Z,5.79
2023-02-14T15:06:55.789Z,5.72
2023-02-14T15:09:28.752Z,5.69
2023-02-14T15:12:15.880Z,5.69
2023-02-14T15:14:44.966Z,5.67
2023-02-14T15:17:17.384Z,5.59
2023-02-14T15:19:46.230Z,5.52
2023-02-14T15:22:29.823Z,5.43
2023-02-14T15:24:59.570Z,5.49
2023-02-14T15:27:28.658Z,5.48
2023-02-14T15:29:57.171Z,5.46
2023-02-14T15:32:27.958Z,5.43
2023-02-14T15:34:55.727Z,5.39
2023-02-14T15:37:24.150Z,5.31
2023-02-14T15:39:58.325Z,5.28
2023-02-14T15:42:29.336Z,5.29
2023-02-14T15:45:16.423Z,5.24
2023-02-14T15:47:47.712Z,5.19
2023-02-14T15:50:19.451Z,5.16
2023-02-14T15:52:48.182Z,5.11
2023-02-14T15:55:18.234Z,5.04
2023-02-14T15:57:49.981Z,5.04
2023-02-14T16:00:18.258Z,4.96
2023-02-14T16:02:49.030Z,4.92
2023-02-14T16:05:18.384Z,4.87
2023-02-14T16:07:59.624Z,4.85
2023-02-14T16:10:28.071Z,4.81
2023-02-14T16:12:57.486Z,4.82
2023-02-14T16:15:34.266Z,4.79
2023-02-14T16:18:07.649Z,4.81
2023-02-14T16:20:43.041Z,4.80
2023-02-14T16:23:27.782Z,4.75
2023-02-14T16:25:57.441Z,4.75
2023-02-14T16:28:28.525Z,4.71
2023-02-14T16:30:57.014Z,4.68
2023-02-14T16:33:28.367Z,4.63
2023-02-14T16:36:00.056Z,4.58
2023-02-14T16:38:27.277Z,4.60
2023-02-14T16:40:54.611Z,4.56
2023-02-14T16:43:22.021Z,4.51
2023-02-14T16:45:49.548Z,4.51
2023-02-14T16:48:17.338Z,4.44
2023-02-14T16:50:46.641Z,4.41
2023-02-14T16:53:22.890Z,4.30
2023-02-14T16:55:52.594Z,4.26
2023-02-14T16:58:22.249Z,4.20
2023-02-14T17:00:53.121Z,4.13
2023-02-14T17:03:20.878Z,4.10
2023-02-14T17:05:48.437Z,4.07
2023-02-14T17:08:16.820Z,4.13
2023-02-14T17:10:46.452Z,4.17
2023-02-14T17:13:17.198Z,4.21
2023-02-14T17:15:44.379Z,4.28
2023-02-14T17:18:18.365Z,4.31
2023-02-14T17:20:46.266Z,4.27
2023-02-14T17:23:13.967Z,4.29
2023-02-14T17:25:41.677Z,4.25
2023-02-14T17:28:09.413Z,4.24
2023-02-14T17:30:36.523Z,4.23
2023-02-14T17:33:04.578Z,4.20
2023-02-14T17:35:35.517Z,4.16
2023-02-14T17:38:05.255Z,4.13
2023-02-14T17:40:33.129Z,4.13
2023-02-14T17:43:00.903Z,4.16
2023-02-14T17:45:28.338Z,4.14
2023-02-14T17:47:59.251Z,4.08
2023-02-14T17:50:27.299Z,4.08
2023-02-14T17:52:56.592Z,4.07
2023-02-14T17:55:24.128Z,4.02
2023-02-14T17:57:53.682Z,4.01
2023-02-14T18:00:24.489Z,3.94
2023-02-14T18:02:53.024Z,3.88
2023-02-14T18:05:20.904Z,3.86
2023-02-14T18:07:49.426Z,3.81
2023-02-14T18:10:17.389Z,3.84
2023-02-14T18:12:45.184Z,3.80
2023-02-14T18:15:12.920Z,3.84
2023-02-14T18:17:41.449Z,3.88
2023-02-14T18:20:09.772Z,3.89
2023-02-14T18:22:38.204Z,3.91
2023-02-14T18:25:13.733Z,3.89
2023-02-14T18:27:41.958Z,3.83
2023-02-14T18:30:09.734Z,3.79
2023-02-14T18:32:37.639Z,3.78
2023-02-14T18:35:05.401Z,3.77
2023-02-14T18:37:34.125Z,3.79
2023-02-14T18:40:02.097Z,3.79
2023-02-14T18:42:30.108Z,3.79
2023-02-14T18:45:00.302Z,3.81
2023-02-14T18:47:31.926Z,3.84
2023-02-14T18:50:05.573Z,3.82
2023-02-14T18:52:35.534Z,3.82
2023-02-14T18:55:03.112Z,3.77
2023-02-14T18:57:31.473Z,3.76
2023-02-14T18:59:59.271Z,3.75
2023-02-14T19:02:29.814Z,3.75
2023-02-14T19:04:57.920Z,3.73
2023-02-14T19:07:26.399Z,3.71
2023-02-14T19:09:54.373Z,3.74
2023-02-14T19:12:24.650Z,3.75
2023-02-14T19:14:58.279Z,3.73
2023-02-14T19:17:28.292Z,3.67
2023-02-14T19:19:55.926Z,3.64
2023-02-14T19:22:24.222Z,3.64
2023-02-14T19:24:55.420Z,3.64
2023-02-14T19:27:24.432Z,3.62
2023-02-14T19:29:54.534Z,3.63
2023-02-14T19:32:24.860Z,3.64
2023-02-14T19:34:52.591Z,3.65
2023-02-14T19:37:21.230Z,3.68
2023-02-14T19:39:49.241Z,3.71
2023-02-14T19:42:19.201Z,3.73
2023-02-14T19:44:47.501Z,3.70
2023-02-14T19:47:30.856Z,3.66
2023-02-14T19:50:04.185Z,3.62
2023-02-14T19:52:34.026Z,3.60
2023-02-14T19:55:03.499Z,3.55
2023-02-14T19:57:35.668Z,3.55
2023-02-14T20:00:05.081Z,3.56
2023-02-14T20:02:46.727Z,3.58
2023-02-14T20:05:18.076Z,3.56
2023-02-14T20:07:52.951Z,3.55
2023-02-14T20:10:21.083Z,3.58
2023-02-14T20:12:50.524Z,3.54
2023-02-14T20:15:19.180Z,3.53
2023-02-14T20:17:47.784Z,3.50
2023-02-14T20:20:19.841Z,3.47
2023-02-14T20:22:49.337Z,3.47
2023-02-14T20:25:17.442Z,3.46
2023-02-14T20:27:46.096Z,3.46
2023-02-14T20:30:15.089Z,3.46
2023-02-14T20:32:43.710Z,3.44
2023-02-14T20:35:11.830Z,3.43
2023-02-14T20:37:40.573Z,3.46
2023-02-14T20:40:11.512Z,3.52
2023-02-14T20:42:40.319Z,3.52
2023-02-14T20:45:08.811Z,3.50
2023-02-14T20:47:37.326Z,3.47
2023-02-14T20:50:11.952Z,3.43
2023-02-14T20:52:41.797Z,3.40
2023-02-14T20:55:09.722Z,3.41
2023-02-14T20:57:39.069Z,3.43
2023-02-14T21:00:09.344Z,3.41
2023-02-14T21:02:42.845Z,3.38
2023-02-14T21:05:10.521Z,3.35
2023-02-14T21:07:40.331Z,3.36
2023-02-14T21:10:10.622Z,3.35
2023-02-14T21:12:42.165Z,3.44
2023-02-14T21:15:12.881Z,3.46
2023-02-14T21:17:43.178Z,3.43
2023-02-14T21:20:12.619Z,3.39
2023-02-14T21:22:40.965Z,3.38
2023-02-14T21:25:08.952Z,3.42
2023-02-14T21:27:37.460Z,3.41
2023-02-14T21:30:06.032Z,3.41
2023-02-14T21:32:34.262Z,3.39
2023-02-14T21:35:02.436Z,3.37
2023-02-14T21:37:31.613Z,3.37
2023-02-14T21:39:59.665Z,3.36
2023-02-14T21:42:27.973Z,3.37
2023-02-14T21:45:14.116Z,3.40
2023-02-14T21:47:42.152Z,3.37
2023-02-14T21:50:29.874Z,3.39
2023-02-14T21:52:58.254Z,3.41
2023-02-14T21:55:26.846Z,3.40
2023-02-14T21:57:54.520Z,3.35
2023-02-14T22:00:23.189Z,3.36
2023-02-14T22:02:51.096Z,3.32
2023-02-14T22:05:18.461Z,3.33
2023-02-14T22:07:45.854Z,3.30
2023-02-14T22:10:13.881Z,3.27
2023-02-14T22:12:41.481Z,3.24
2023-02-14T22:15:09.165Z,3.21
2023-02-14T22:17:36.924Z,3.19
2023-02-14T22:20:06.146Z,3.19
2023-02-14T22:22:34.612Z,3.21
2023-02-14T22:25:01.563Z,3.18
2023-02-14T22:27:30.206Z,3.15
2023-02-14T22:29:57.168Z,3.16
2023-02-14T22:32:24.421Z,3.17
2023-02-14T22:34:51.408Z,3.14
2023-02-14T22:37:18.706Z,3.11
2023-02-14T22:39:45.846Z,3.13
2023-02-14T22:42:12.974Z,3.13
2023-02-14T22:44:39.977Z,3.08
2023-02-14T22:47:07.156Z,3.04
2023-02-14T22:49:34.211Z,2.95
2023-02-14T22:52:03.959Z,2.85
2023-02-14T22:54:30.913Z,2.88
2023-02-14T22:56:59.882Z,2.84
2023-02-14T22:59:31.298Z,2.83
2023-02-14T23:01:59.008Z,2.82
2023-02-14T23:04:26.198Z,2.78
2023-02-14T23:06:56.079Z,2.77
2023-02-14T23:09:23.924Z,2.76
2023-02-14T23:11:52.069Z,2.77
2023-02-14T23:14:38.238Z,2.79
2023-02-14T23:17:06.019Z,2.79
2023-02-14T23:19:52.611Z,2.79
2023-02-14T23:22:20.455Z,2.80
2023-02-14T23:24:52.310Z,2.80
2023-02-14T23:27:21.384Z,2.82
2023-02-14T23:29:48.337Z,2.87
2023-02-14T23:32:15.600Z,2.95
2023-02-14T23:34:43.606Z,3.00
2023-02-14T23:37:11.415Z,2.98
2023-02-14T23:39:38.550Z,2.99
2023-02-14T23:42:09.073Z,2.98
2023-02-14T23:44:36.012Z,2.95
2023-02-14T23:47:04.628Z,2.96
2023-02-14T23:49:32.727Z,2.96
2023-02-14T23:52:00.112Z,2.99
2023-02-14T23:54:27.361Z,3.01
2023-02-14T23:56:54.917Z,3.00
2023-02-14T23:59:22.211Z,3.00
